Time;durP1;ratioP1;P1;durP2;ratioP2;P2;SDS_P1;SDS_P2;PMS_P1;PMS_P2;Temp;Humidity;BMP_temperature;BMP_pressure;BME280_temperature;BME280_humidity;BME280_pressure;Samples;Min_cycle;Max_cycle;Signal;HPM_P1;HPM_P2
2023/09/28 00:02:50;;;;;;;10.83;6.90;;;;;;;15.76;100.00;101564.28;7372449;19;21226;-41
2023/09/28 00:05:21;;;;;;;13.40;7.10;;;;;;;15.75;100.00;101565.09;7392285;19;20793;-40
2023/09/28 00:07:53;;;;;;;8.80;6.50;;;;;;;15.76;100.00;101556.47;7369540;19;20419;-42
2023/09/28 00:10:21;;;;;;;12.23;7.03;;;;;;;15.80;100.00;101563.53;7393547;19;20407;-41
2023/09/28 00:12:53;;;;;;;10.50;6.43;;;;;;;15.79;100.00;101566.06;7370413;19;20874;-41
2023/09/28 00:15:21;;;;;;;13.13;6.97;;;;;;;15.76;100.00;101568.59;7392983;19;20462;-41
2023/09/28 00:17:51;;;;;;;8.80;6.60;;;;;;;15.74;100.00;101567.66;7371150;19;20415;-41
2023/09/28 00:20:20;;;;;;;10.23;6.63;;;;;;;15.72;100.00;101569.31;7392591;19;20404;-40
2023/09/28 00:22:54;;;;;;;8.80;6.17;;;;;;;15.71;100.00;101555.44;7367367;19;20809;-39
2023/09/28 00:25:23;;;;;;;9.20;6.33;;;;;;;15.69;100.00;101559.69;7389220;19;20469;-42
2023/09/28 00:27:55;;;;;;;9.10;6.10;;;;;;;15.67;100.00;101561.38;7364859;19;20482;-40
2023/09/28 00:30:25;;;;;;;12.03;6.50;;;;;;;15.63;100.00;101565.59;7389147;19;20407;-42
2023/09/28 00:32:55;;;;;;;10.27;6.77;;;;;;;15.59;100.00;101547.22;7369626;19;20767;-41
2023/09/28 00:35:23;;;;;;;9.23;6.33;;;;;;;15.53;100.00;101534.88;7392444;19;21011;-42
2023/09/28 00:37:55;;;;;;;12.93;6.93;;;;;;;15.52;100.00;101523.63;7369395;19;20498;-42
2023/09/28 00:40:28;;;;;;;9.87;6.50;;;;;;;15.56;100.00;101526.31;7392755;19;20407;-41
2023/09/28 00:42:56;;;;;;;11.40;7.50;;;;;;;15.47;100.00;101522.56;7368783;19;20415;-41
2023/09/28 00:45:26;;;;;;;17.30;6.90;;;;;;;15.45;100.00;101532.03;7392207;19;20444;-40
2023/09/28 00:47:55;;;;;;;11.70;6.60;;;;;;;15.39;100.00;101524.03;7368031;19;20431;-42
2023/09/28 00:50:26;;;;;;;10.70;6.70;;;;;;;15.35;100.00;101515.25;7390139;19;20795;-40
2023/09/28 00:52:58;;;;;;;11.50;7.47;;;;;;;15.35;100.00;101506.56;7369372;19;20427;-42
2023/09/28 00:55:29;;;;;;;9.90;7.30;;;;;;;15.32;100.00;101501.22;7385417;19;20444;-40
2023/09/28 00:57:57;;;;;;;10.23;7.10;;;;;;;15.30;100.00;101483.00;7363601;19;20431;-40
2023/09/28 01:00:29;;;;;;;10.20;6.60;;;;;;;15.25;100.00;101477.66;7382909;19;20406;-41
2023/09/28 01:02:59;;;;;;;13.20;7.30;;;;;;;15.25;100.00;101464.66;7361750;19;20415;-41
2023/09/28 01:05:31;;;;;;;8.87;6.87;;;;;;;15.22;100.00;101448.94;7391856;19;20549;-43
2023/09/28 01:08:07;;;;;;;10.80;6.90;;;;;;;15.28;100.00;101431.78;7368463;19;20429;-41
2023/09/28 01:10:38;;;;;;;12.00;8.10;;;;;;;15.30;100.00;101422.31;7393887;19;20501;-42
2023/09/28 01:13:08;;;;;;;10.40;7.00;;;;;;;15.23;100.00;101419.50;7368823;19;20422;-42
2023/09/28 01:15:38;;;;;;;12.27;8.53;;;;;;;15.24;100.00;101407.41;7386843;19;20452;-41
2023/09/28 01:18:09;;;;;;;16.17;7.97;;;;;;;15.22;100.00;101401.25;7363068;19;20439;-42
2023/09/28 01:20:40;;;;;;;11.70;7.40;;;;;;;15.18;100.00;101389.88;7389545;19;20408;-42
2023/09/28 01:23:10;;;;;;;13.93;8.43;;;;;;;15.24;100.00;101379.69;7362990;19;20423;-42
2023/09/28 01:25:40;;;;;;;12.00;8.17;;;;;;;15.29;100.00;101363.38;7389824;19;20460;-41
2023/09/28 01:28:10;;;;;;;16.27;7.43;;;;;;;15.30;100.00;101365.13;7367520;19;20415;-42
2023/09/28 01:30:39;;;;;;;14.00;8.40;;;;;;;15.24;100.00;101350.22;7390021;19;20399;-43
2023/09/28 01:33:09;;;;;;;212.10;111.07;;;;;;;15.20;100.00;101350.97;7366536;19;20438;-41
2023/09/28 01:35:40;;;;;;;20.47;11.20;;;;;;;15.32;100.00;101337.47;7390643;19;20439;-43
2023/09/28 01:38:14;;;;;;;25.00;15.90;;;;;;;15.42;100.00;101344.72;7367885;19;20444;-40
2023/09/28 01:40:45;;;;;;;12.53;8.00;;;;;;;15.38;100.00;101356.75;7391243;19;21145;-41
2023/09/28 01:43:16;;;;;;;18.30;11.23;;;;;;;15.24;100.00;101351.09;7362019;19;20796;-41
2023/09/28 01:45:44;;;;;;;13.07;8.00;;;;;;;15.33;100.00;101341.84;7389053;19;20868;-41
2023/09/28 01:48:15;;;;;;;16.90;11.90;;;;;;;15.40;100.00;101338.59;7368706;19;20470;-41
2023/09/28 01:50:42;;;;;;;13.00;9.53;;;;;;;15.42;100.00;101342.13;7393354;19;20425;-42
2023/09/28 01:53:14;;;;;;;13.07;9.00;;;;;;;15.33;100.00;101340.13;7366996;19;20415;-40
2023/09/28 01:55:41;;;;;;;12.70;8.00;;;;;;;15.16;100.00;101349.09;7388825;19;20443;-41
2023/09/28 01:58:11;;;;;;;13.37;8.70;;;;;;;15.07;100.00;101337.56;7390537;19;20411;-41
2023/09/28 02:00:38;;;;;;;11.90;7.70;;;;;;;15.03;100.00;101350.41;7380608;19;20406;-40
2023/09/28 02:03:09;;;;;;;12.20;9.07;;;;;;;14.99;100.00;101332.13;7389712;19;20415;-40
2023/09/28 02:05:36;;;;;;;12.10;7.83;;;;;;;14.95;100.00;101309.47;7390576;19;20431;-41
2023/09/28 02:08:06;;;;;;;16.10;10.50;;;;;;;15.05;100.00;101301.97;7392339;19;20470;-42
2023/09/28 02:10:36;;;;;;;15.10;9.60;;;;;;;15.10;100.00;101298.72;7391249;19;20486;-40
2023/09/28 02:13:06;;;;;;;14.37;9.60;;;;;;;15.08;100.00;101294.28;7393282;19;20478;-42
2023/09/28 02:15:33;;;;;;;19.47;9.17;;;;;;;15.08;100.00;101299.50;7395993;19;20526;-41
2023/09/28 02:18:04;;;;;;;14.13;9.33;;;;;;;15.14;100.00;101299.69;7395458;19;20395;-41
2023/09/28 02:20:31;;;;;;;12.77;8.83;;;;;;;15.04;100.00;101310.59;7395487;19;20487;-41
2023/09/28 02:23:01;;;;;;;15.13;9.97;;;;;;;14.90;100.00;101315.34;7395947;19;20403;-40
2023/09/28 02:25:29;;;;;;;18.03;9.80;;;;;;;14.88;100.00;101315.31;7396491;19;20447;-39
2023/09/28 02:28:01;;;;;;;15.90;9.77;;;;;;;14.85;100.00;101325.59;7399129;19;20475;-42
2023/09/28 02:30:28;;;;;;;14.47;8.97;;;;;;;14.81;100.00;101314.22;7395035;19;20412;-42
2023/09/28 02:32:58;;;;;;;21.30;10.93;;;;;;;14.81;100.00;101305.53;7395278;19;20483;-40
2023/09/28 02:35:25;;;;;;;14.80;10.10;;;;;;;14.81;100.00;101284.75;7396355;19;21014;-41
2023/09/28 02:37:55;;;;;;;15.00;9.30;;;;;;;14.80;100.00;101283.00;7395827;19;20951;-42
2023/09/28 02:40:23;;;;;;;18.30;10.30;;;;;;;14.78;100.00;101269.06;7396687;19;20415;-40
2023/09/28 02:42:53;;;;;;;15.83;10.30;;;;;;;14.84;100.00;101243.31;7395704;19;21015;-45
2023/09/28 02:45:23;;;;;;;15.93;10.10;;;;;;;14.84;100.00;101238.09;7372970;19;20399;-40
2023/09/28 02:47:54;;;;;;;18.10;11.57;;;;;;;14.80;100.00;101251.81;7394101;19;21073;-40
2023/09/28 02:50:22;;;;;;;22.30;11.23;;;;;;;14.75;100.00;101255.97;7373608;19;20391;-41
2023/09/28 02:52:52;;;;;;;15.10;10.97;;;;;;;14.73;100.00;101248.13;7395693;19;20428;-43
2023/09/28 02:55:20;;;;;;;19.23;11.87;;;;;;;14.83;100.00;101237.22;7370695;19;20402;-41
2023/09/28 02:57:49;;;;;;;15.27;10.47;;;;;;;14.87;100.00;101233.00;7394447;19;20873;-42
2023/09/28 03:00:19;;;;;;;14.60;10.40;;;;;;;14.82;100.00;101238.06;7373983;19;20381;-41
2023/09/28 03:02:51;;;;;;;15.83;10.50;;;;;;;14.71;100.00;101245.47;7395121;19;20880;-41
2023/09/28 03:05:20;;;;;;;19.13;12.13;;;;;;;14.71;100.00;101236.78;7372635;19;20414;-43
2023/09/28 03:07:50;;;;;;;16.47;11.47;;;;;;;14.69;100.00;101233.25;7394580;19;20407;-40
2023/09/28 03:10:19;;;;;;;18.60;10.93;;;;;;;14.70;100.00;101228.13;7371473;19;20482;-41
2023/09/28 03:12:51;;;;;;;15.77;11.03;;;;;;;14.71;100.00;101232.50;7393266;19;20429;-41
2023/09/28 03:15:20;;;;;;;17.67;11.97;;;;;;;14.64;100.00;101235.72;7370469;19;20399;-41
2023/09/28 03:17:53;;;;;;;15.20;11.40;;;;;;;14.68;100.00;101229.78;7393247;19;20413;-40
2023/09/28 03:20:21;;;;;;;17.53;11.80;;;;;;;14.70;100.00;101235.91;7369726;19;20410;-41
2023/09/28 03:22:52;;;;;;;17.30;12.10;;;;;;;14.80;100.00;101242.31;7395099;19;20414;-41
2023/09/28 03:25:21;;;;;;;16.20;11.80;;;;;;;14.78;100.00;101232.72;7368500;19;20439;-40
2023/09/28 03:27:52;;;;;;;17.00;12.40;;;;;;;14.69;100.00;101234.16;7393235;19;20924;-41
2023/09/28 03:30:21;;;;;;;19.20;12.50;;;;;;;14.76;100.00;101234.41;7371645;19;20395;-42
2023/09/28 03:32:54;;;;;;;21.87;13.50;;;;;;;14.72;100.00;101223.84;7393631;19;20781;-39
2023/09/28 03:35:22;;;;;;;19.17;12.33;;;;;;;14.79;100.00;101221.50;7369620;19;20415;-41
2023/09/28 03:37:54;;;;;;;20.93;12.87;;;;;;;14.80;100.00;101218.06;7394081;19;20408;-40
2023/09/28 03:40:24;;;;;;;16.23;11.90;;;;;;;14.76;100.00;101213.63;7368569;19;20447;-41
2023/09/28 03:42:53;;;;;;;19.30;11.93;;;;;;;14.76;100.00;101213.63;7392691;19;20399;-41
2023/09/28 03:45:25;;;;;;;21.00;12.60;;;;;;;14.90;100.00;101214.91;7370207;19;20416;-42
2023/09/28 03:47:57;;;;;;;17.93;12.43;;;;;;;14.81;100.00;101222.41;7392768;19;20416;-41
2023/09/28 03:50:27;;;;;;;20.60;13.37;;;;;;;14.78;100.00;101219.72;7372121;19;20435;-40
2023/09/28 03:52:56;;;;;;;16.93;12.10;;;;;;;14.80;100.00;101220.66;7392620;19;20415;-39
2023/09/28 03:55:26;;;;;;;17.97;12.03;;;;;;;14.74;100.00;101220.41;7370276;19;20408;-41
2023/09/28 03:57:56;;;;;;;17.30;11.67;;;;;;;14.81;100.00;101223.31;7393465;19;20885;-40
2023/09/28 04:00:25;;;;;;;156.90;74.13;;;;;;;14.87;100.00;101226.94;7371555;19;20667;-41
2023/09/28 04:02:57;;;;;;;19.07;13.00;;;;;;;14.89;100.00;101230.44;7394022;19;20490;-41
2023/09/28 04:05:27;;;;;;;45.37;24.93;;;;;;;14.88;100.00;101229.59;7371381;19;20415;-39
2023/09/28 04:07:57;;;;;;;70.30;33.27;;;;;;;14.92;100.00;101230.56;7392624;19;20411;-41
2023/09/28 04:10:27;;;;;;;18.43;12.10;;;;;;;14.80;100.00;101239.72;7369509;19;20399;-44
2023/09/28 04:12:57;;;;;;;19.57;11.70;;;;;;;14.74;100.00;101233.41;7391759;19;20950;-41
2023/09/28 04:15:26;;;;;;;19.70;12.37;;;;;;;14.74;100.00;101233.41;7370936;19;20402;-40
2023/09/28 04:17:58;;;;;;;17.70;12.40;;;;;;;14.80;100.00;101231.03;7389423;19;20411;-41
2023/09/28 04:20:29;;;;;;;22.37;12.83;;;;;;;14.85;100.00;101229.47;7371045;19;20435;-40
2023/09/28 04:22:59;;;;;;;18.47;11.63;;;;;;;14.72;100.00;101239.44;7391863;19;20470;-40
2023/09/28 04:25:29;;;;;;;17.23;11.70;;;;;;;14.71;100.00;101242.88;7370053;19;20399;-40
2023/09/28 04:27:59;;;;;;;16.50;11.70;;;;;;;14.75;100.00;101232.59;7393717;19;20482;-41
2023/09/28 04:30:29;;;;;;;19.10;12.13;;;;;;;14.81;100.00;101225.91;7370817;19;20399;-40
2023/09/28 04:33:01;;;;;;;22.13;13.80;;;;;;;14.92;100.00;101221.03;7390442;19;21026;-42
2023/09/28 04:35:30;;;;;;;16.73;11.10;;;;;;;14.87;100.00;101232.13;7369560;19;20403;-43
2023/09/28 04:38:00;;;;;;;18.97;11.47;;;;;;;14.74;100.00;101233.41;7393445;19;20395;-40
2023/09/28 04:40:30;;;;;;;16.90;11.43;;;;;;;14.69;100.00;101244.56;7369059;19;20991;-41
2023/09/28 04:42:59;;;;;;;26.63;11.73;;;;;;;14.65;100.00;101247.88;7393210;19;20407;-41
2023/09/28 04:45:29;;;;;;;18.00;11.43;;;;;;;14.64;100.00;101246.09;7344118;19;20471;-40
2023/09/28 04:48:01;;;;;;;17.90;11.13;;;;;;;14.64;100.00;101253.91;7391744;19;20503;-40
2023/09/28 04:50:31;;;;;;;17.37;11.30;;;;;;;14.63;100.00;101262.53;7371834;19;20451;-42
2023/09/28 04:53:00;;;;;;;22.40;11.80;;;;;;;14.58;100.00;101256.28;7392974;19;20428;-42
2023/09/28 04:55:30;;;;;;;19.50;12.00;;;;;;;14.59;100.00;101252.84;7369356;19;20395;-41
2023/09/28 04:58:00;;;;;;;19.13;11.63;;;;;;;14.56;100.00;101248.44;7393340;19;20412;-41
2023/09/28 05:00:30;;;;;;;19.47;12.77;;;;;;;14.55;100.00;101249.28;7370931;19;20402;-40
2023/09/28 05:03:03;;;;;;;16.80;12.43;;;;;;;14.60;100.00;101241.63;7390633;19;20416;-41
2023/09/28 05:05:34;;;;;;;18.93;12.37;;;;;;;14.62;100.00;101232.19;7369652;19;20454;-40
2023/09/28 05:08:03;;;;;;;20.57;13.00;;;;;;;14.66;100.00;101231.44;7391273;19;20416;-40
2023/09/28 05:10:33;;;;;;;19.93;12.80;;;;;;;14.67;100.00;101242.72;7368218;19;20409;-40
2023/09/28 05:13:02;;;;;;;19.87;13.00;;;;;;;14.65;100.00;101245.28;7392212;19;20429;-41
2023/09/28 05:15:32;;;;;;;18.77;12.87;;;;;;;14.61;100.00;101256.38;7369314;19;20395;-41
2023/09/28 05:18:04;;;;;;;17.70;13.20;;;;;;;14.57;100.00;101254.53;7390664;19;20927;-42
2023/09/28 05:20:34;;;;;;;18.10;11.53;;;;;;;14.57;100.00;101259.72;7368696;19;20419;-41
2023/09/28 05:23:04;;;;;;;22.50;12.97;;;;;;;14.67;100.00;101260.91;7390172;19;20411;-40
2023/09/28 05:25:34;;;;;;;19.80;12.50;;;;;;;14.65;100.00;101260.84;7369406;19;20799;-40
2023/09/28 05:28:04;;;;;;;21.13;12.17;;;;;;;14.61;100.00;101261.56;7392316;19;20849;-39
2023/09/28 05:30:33;;;;;;;17.57;12.47;;;;;;;14.61;100.00;101264.16;7368501;19;20950;-41
2023/09/28 05:33:09;;;;;;;22.33;13.00;;;;;;;14.57;100.00;101270.97;7389853;19;20403;-41
2023/09/28 05:35:39;;;;;;;22.47;13.10;;;;;;;14.61;100.00;101264.16;7368798;19;20632;-41
2023/09/28 05:38:08;;;;;;;17.83;12.47;;;;;;;14.56;100.00;101271.81;7390389;19;20396;-41
2023/09/28 05:40:38;;;;;;;19.37;13.10;;;;;;;14.58;100.00;101269.28;7364928;19;20926;-43
2023/09/28 05:43:08;;;;;;;18.23;12.60;;;;;;;14.63;100.00;101278.09;7389534;19;20407;-40
2023/09/28 05:45:38;;;;;;;20.43;12.37;;;;;;;14.55;100.00;101276.94;7368041;19;20399;-43
2023/09/28 05:48:10;;;;;;;19.93;13.03;;;;;;;14.55;100.00;101271.75;7394285;19;20430;-41
2023/09/28 05:50:41;;;;;;;21.90;13.47;;;;;;;14.54;100.00;101275.19;7375279;19;20391;-42
2023/09/28 05:53:11;;;;;;;19.93;12.00;;;;;;;14.52;100.00;101266.47;7395611;19;20406;-41
2023/09/28 05:55:41;;;;;;;17.50;12.10;;;;;;;14.53;100.00;101279.50;7374778;19;20449;-41
2023/09/28 05:58:10;;;;;;;23.27;12.90;;;;;;;14.51;100.00;101288.94;7396402;19;20486;-41
2023/09/28 06:00:41;;;;;;;20.00;12.53;;;;;;;14.52;100.00;101300.22;7375320;19;20395;-40
2023/09/28 06:03:13;;;;;;;16.37;12.43;;;;;;;14.55;100.00;101306.41;7395871;19;20553;-40
2023/09/28 06:05:43;;;;;;;21.10;11.90;;;;;;;14.58;100.00;101306.50;7374738;19;20406;-40
2023/09/28 06:08:13;;;;;;;19.27;13.10;;;;;;;14.58;100.00;101305.63;7399281;19;20416;-44
2023/09/28 06:10:44;;;;;;;23.20;13.03;;;;;;;14.60;100.00;101309.16;7374041;19;20403;-39
2023/09/28 06:13:18;;;;;;;17.70;12.47;;;;;;;14.64;100.00;101304.94;7398293;19;20411;-41
2023/09/28 06:15:48;;;;;;;21.63;13.00;;;;;;;14.65;100.00;101305.00;7374617;19;20398;-42
2023/09/28 06:18:20;;;;;;;19.53;12.30;;;;;;;14.67;100.00;101313.72;7399027;19;20413;-39
2023/09/28 06:20:50;;;;;;;18.83;13.07;;;;;;;14.74;100.00;101329.50;7374393;19;20434;-40
2023/09/28 06:23:20;;;;;;;17.33;11.60;;;;;;;14.81;100.00;101337.59;7395045;19;20404;-40
2023/09/28 06:25:50;;;;;;;29.73;13.00;;;;;;;14.88;100.00;101343.88;7375096;19;20427;-40
2023/09/28 06:28:21;;;;;;;18.27;11.70;;;;;;;14.90;100.00;101347.41;7398033;19;20752;-41
2023/09/28 06:30:51;;;;;;;19.40;11.60;;;;;;;14.98;100.00;101358.94;7375678;19;20463;-42
2023/09/28 06:33:23;;;;;;;28.10;13.07;;;;;;;15.02;100.00;101359.06;7395530;19;20488;-40
2023/09/28 06:35:53;;;;;;;18.23;12.13;;;;;;;15.09;100.00;101363.63;7374311;19;20427;-41
2023/09/28 06:38:23;;;;;;;20.90;12.10;;;;;;;15.10;100.00;101380.97;7398601;19;20427;-41
2023/09/28 06:40:53;;;;;;;19.10;11.63;;;;;;;15.18;100.00;101381.22;7373429;19;20432;-40
2023/09/28 06:43:22;;;;;;;22.97;12.10;;;;;;;15.20;100.00;101393.44;7395816;19;20427;-40
2023/09/28 06:45:52;;;;;;;21.50;10.53;;;;;;;15.21;100.00;101390.00;7374346;19;20434;-39
2023/09/28 06:48:24;;;;;;;19.67;11.90;;;;;;;15.32;100.00;101397.25;7395223;19;20780;-42
2023/09/28 06:50:58;;;;;;;17.70;11.03;;;;;;;15.39;100.00;101404.44;7373776;19;20412;-42
2023/09/28 06:53:28;;;;;;;16.60;10.87;;;;;;;15.48;100.00;101412.53;7394951;19;20931;-41
2023/09/28 06:55:59;;;;;;;14.97;9.60;;;;;;;15.57;100.00;101429.25;7372175;19;20427;-41
2023/09/28 06:58:42;;;;;;;19.30;11.90;;;;;;;15.65;100.00;101446.00;7397926;19;20417;-41
2023/09/28 07:01:12;;;;;;;17.07;10.20;;;;;;;15.73;100.00;101456.63;7374067;19;20494;-40
2023/09/28 07:03:45;;;;;;;15.20;10.80;;;;;;;15.78;100.00;101471.56;7395156;19;20427;-40
2023/09/28 07:06:14;;;;;;;17.70;10.37;;;;;;;15.85;100.00;101482.16;7372728;19;20850;-40
2023/09/28 07:08:44;;;;;;;17.00;9.67;;;;;;;15.88;100.00;101482.22;7396641;19;20423;-41
2023/09/28 07:11:14;;;;;;;14.93;9.73;;;;;;;15.91;100.00;101493.63;7373598;19;20510;-40
2023/09/28 07:13:44;;;;;;;14.30;9.93;;;;;;;15.98;100.00;101510.34;7395316;19;20790;-41
2023/09/28 07:16:14;;;;;;;14.47;10.03;;;;;;;16.05;100.00;101520.13;7372477;19;20408;-40
2023/09/28 07:18:46;;;;;;;14.03;9.30;;;;;;;16.14;100.00;101523.84;7395722;19;20416;-40
2023/09/28 07:21:16;;;;;;;16.50;9.70;;;;;;;16.18;100.00;101529.22;7372035;19;20472;-40
2023/09/28 07:23:45;;;;;;;14.00;9.20;;;;;;;16.20;100.00;101542.25;7394808;19;20786;-39
2023/09/28 07:26:17;;;;;;;13.53;8.73;;;;;;;16.26;100.00;101552.84;7371678;19;20419;-40
2023/09/28 07:28:47;;;;;;;14.30;9.37;;;;;;;16.31;100.00;101566.91;7395709;19;20411;-40
2023/09/28 07:31:19;;;;;;;17.30;9.37;;;;;;;16.33;100.00;101566.97;7372216;19;20435;-41
2023/09/28 07:33:51;;;;;;;13.10;9.10;;;;;;;16.36;100.00;101579.19;7394492;19;20415;-41
2023/09/28 07:36:22;;;;;;;13.97;8.50;;;;;;;16.37;100.00;101580.94;7372433;19;20490;-43
2023/09/28 07:38:51;;;;;;;18.10;8.00;;;;;;;16.40;100.00;101588.88;7391970;19;20482;-41
2023/09/28 07:41:21;;;;;;;14.37;8.70;;;;;;;16.43;100.00;101591.56;7368771;19;20419;-41
2023/09/28 07:43:52;;;;;;;13.07;8.67;;;;;;;16.46;100.00;101596.88;7393603;19;20431;-40
2023/09/28 07:46:22;;;;;;;13.07;8.37;;;;;;;16.50;100.00;101606.53;7371574;19;20986;-42
2023/09/28 07:48:56;;;;;;;11.10;7.70;;;;;;;16.60;100.00;101611.19;7392713;19;20421;-41
2023/09/28 07:51:25;;;;;;;9.87;6.80;;;;;;;16.67;100.00;101621.81;7371371;19;20515;-40
2023/09/28 07:53:55;;;;;;;19.37;7.90;;;;;;;16.73;100.00;101627.19;7393613;19;20451;-41
2023/09/28 07:56:25;;;;;;;14.03;7.93;;;;;;;16.82;100.00;101631.81;7369780;19;20415;-40
2023/09/28 07:58:55;;;;;;;14.83;7.70;;;;;;;16.95;100.00;101644.38;7394819;19;21173;-40
2023/09/28 08:01:26;;;;;;;10.23;7.30;;;;;;;17.07;100.00;101664.72;7372207;19;20463;-41
2023/09/28 08:03:58;;;;;;;10.27;6.93;;;;;;;17.16;100.00;101679.75;7392349;19;20443;-40
2023/09/28 08:06:28;;;;;;;11.03;7.47;;;;;;;17.29;100.00;101694.03;7368762;19;20442;-40
2023/09/28 08:08:59;;;;;;;10.77;7.30;;;;;;;17.37;100.00;101699.44;7390674;19;20406;-44
2023/09/28 08:11:32;;;;;;;8.80;6.60;;;;;;;17.52;100.00;101712.03;7369487;19;20841;-40
2023/09/28 08:14:01;;;;;;;9.80;7.00;;;;;;;17.59;100.00;101729.63;7392311;19;20431;-40
2023/09/28 08:16:31;;;;;;;9.80;6.50;;;;;;;17.74;100.00;101744.84;7370737;19;20406;-41
2023/09/28 08:19:04;;;;;;;11.33;7.73;;;;;;;17.83;100.00;101752.03;7394698;19;20403;-41
2023/09/28 08:21:37;;;;;;;10.27;7.03;;;;;;;17.95;100.00;101769.78;7370787;19;20456;-41
2023/09/28 08:24:07;;;;;;;18.87;9.10;;;;;;;18.00;100.00;101764.69;7393137;19;20431;-42
2023/09/28 08:26:37;;;;;;;15.27;8.57;;;;;;;18.07;100.00;101764.03;7369464;19;20431;-41
2023/09/28 08:29:07;;;;;;;12.00;7.37;;;;;;;18.18;100.00;101775.66;7394492;19;20482;-40
2023/09/28 08:31:37;;;;;;;15.20;7.73;;;;;;;18.29;100.00;101772.41;7370930;19;20815;-41
2023/09/28 08:34:10;;;;;;;11.30;7.10;;;;;;;18.41;100.00;101770.13;7391465;19;20447;-42
2023/09/28 08:36:44;;;;;;;13.00;6.23;;;;;;;18.51;100.00;101763.41;7370210;19;20418;-43
2023/09/28 08:39:13;;;;;;;10.37;5.40;;;;;;;18.63;100.00;101752.38;7393485;19;20400;-39
2023/09/28 08:41:47;;;;;;;10.90;6.73;;;;;;;18.69;100.00;101736.84;7367794;19;20443;-41
2023/09/28 08:44:17;;;;;;;11.23;6.30;;;;;;;18.72;100.00;101716.00;7392103;19;20867;-41
2023/09/28 08:46:47;;;;;;;9.70;5.43;;;;;;;18.83;100.00;101702.31;7370043;19;20463;-40
2023/09/28 08:49:21;;;;;;;12.73;6.10;;;;;;;18.90;100.00;101693.75;7394585;19;20435;-40
2023/09/28 08:51:51;;;;;;;16.77;7.40;;;;;;;19.01;100.00;101681.78;7369732;19;20955;-43
2023/09/28 08:54:22;;;;;;;11.80;6.07;;;;;;;19.09;100.00;101678.47;7392527;19;20814;-44
2023/09/28 08:56:53;;;;;;;8.93;5.17;;;;;;;19.13;100.00;101657.66;7366488;19;20435;-41
2023/09/28 08:59:28;;;;;;;9.50;5.70;;;;;;;19.20;100.00;101642.97;7395502;19;20431;-41
2023/09/28 09:01:58;;;;;;;10.80;6.53;;;;;;;19.31;100.00;101630.09;7369587;19;20963;-40
2023/09/28 09:04:30;;;;;;;11.60;4.70;;;;;;;19.47;100.00;101623.41;7392446;19;20455;-40
2023/09/28 09:07:01;;;;;;;7.87;4.90;;;;;;;19.38;100.00;101591.88;7369820;19;20427;-43
2023/09/28 09:09:31;;;;;;;8.10;5.53;;;;;;;19.41;100.00;101597.16;7392437;19;20419;-41
2023/09/28 09:12:03;;;;;;;10.17;6.00;;;;;;;19.48;100.00;101603.38;7369223;19;20514;-41
2023/09/28 09:14:33;;;;;;;10.47;5.07;;;;;;;19.53;100.00;101594.75;7391189;19;20443;-40
2023/09/28 09:17:02;;;;;;;9.13;5.00;;;;;;;19.63;100.00;101600.16;7364431;19;20450;-41
2023/09/28 09:19:35;;;;;;;12.57;4.90;;;;;;;19.70;100.00;101594.19;7388748;19;20955;-41
2023/09/28 09:22:08;;;;;;;11.63;6.03;;;;;;;19.64;100.00;101566.16;7367496;19;20448;-42
2023/09/28 09:24:56;;;;;;;12.10;5.50;;;;;;;19.59;100.00;101530.28;7397770;19;20442;-43
2023/09/28 09:27:29;;;;;;;9.03;5.10;;;;;;;19.69;100.00;101524.38;7374604;19;20438;-41
2023/09/28 09:30:00;;;;;;;10.43;4.90;;;;;;;19.78;100.00;101523.59;7395158;19;20400;-40
2023/09/28 09:32:30;;;;;;;7.83;5.07;;;;;;;19.64;100.00;101519.03;7377916;19;20443;-40
2023/09/28 09:35:02;;;;;;;9.97;5.60;;;;;;;19.53;100.00;101523.22;7396666;19;21001;-41
2023/09/28 09:37:36;;;;;;;9.30;5.03;;;;;;;19.58;100.00;101534.63;7377234;19;20425;-41
2023/09/28 09:40:13;;;;;;;10.67;5.93;;;;;;;19.81;100.00;101531.53;7372962;19;20407;-42
2023/09/28 09:42:43;;;;;;;10.20;4.77;;;;;;;19.87;100.00;101518.53;7384692;19;20403;-44
2023/09/28 09:45:13;;;;;;;8.97;5.10;;;;;;;19.89;100.00;101518.56;7374237;19;20809;-44
2023/09/28 09:47:47;;;;;;;17.17;8.93;;;;;;;19.94;100.00;101509.03;7395803;19;20420;-40
2023/09/28 09:50:21;;;;;;;16.13;7.93;;;;;;;20.03;100.00;101508.28;7373573;19;20753;-42
2023/09/28 09:52:50;;;;;;;10.97;5.73;;;;;;;20.21;100.00;101511.16;7393621;19;20776;-42
2023/09/28 09:55:20;;;;;;;9.03;5.33;;;;;;;20.34;100.00;101487.75;7373623;19;20443;-42
2023/09/28 09:57:50;;;;;;;14.07;7.13;;;;;;;20.35;100.00;101464.19;7396902;19;20411;-40
2023/09/28 10:00:22;;;;;;;12.17;6.63;;;;;;;20.30;100.00;101434.44;7373900;19;20483;-41
2023/09/28 10:02:55;;;;;;;9.00;5.60;;;;;;;20.16;100.00;101409.81;7396427;19;20794;-43
2023/09/28 10:05:28;;;;;;;10.70;4.37;;;;;;;20.25;100.00;101420.41;7373350;19;20934;-42
2023/09/28 10:07:58;;;;;;;10.10;5.37;;;;;;;20.43;100.00;101408.38;7395170;19;20796;-40
2023/09/28 10:10:29;;;;;;;8.30;4.90;;;;;;;20.49;100.00;101406.72;7374073;19;20438;-43
2023/09/28 10:12:59;;;;;;;14.20;7.77;;;;;;;20.53;100.00;101405.00;7395274;19;20483;-39
2023/09/28 10:15:30;;;;;;;16.47;9.83;;;;;;;20.28;100.00;101328.75;7354945;19;20473;-41
2023/09/28 10:18:01;;;;;;;11.17;5.37;;;;;;;20.36;100.00;101321.84;7384714;19;20403;-41
2023/09/28 10:20:34;;;;;;;8.97;5.73;;;;;;;20.43;100.00;101309.69;7371719;19;20407;-40
2023/09/28 10:23:14;;;;;;;16.60;7.40;;;;;;;20.57;100.00;101314.19;7393939;19;20419;-40
2023/09/28 10:25:56;;;;;;;11.97;5.63;;;;;;;20.67;100.00;101329.16;7373011;19;20399;-41
2023/09/28 10:28:26;;;;;;;18.43;7.77;;;;;;;20.56;100.00;101322.91;7395877;19;20427;-41
2023/09/28 10:31:15;;;;;;;14.00;5.07;;;;;;;20.60;100.00;101302.00;7373914;19;20431;-40
2023/09/28 10:33:59;;;;;;;10.80;4.83;;;;;;;20.61;100.00;101289.78;7394434;19;20407;-40
2023/09/28 10:36:33;;;;;;;10.80;5.40;;;;;;;20.73;100.00;101275.88;7372779;19;20951;-40
2023/09/28 10:39:13;;;;;;;11.90;4.70;;;;;;;20.77;100.00;101277.66;7397319;19;20432;-41
2023/09/28 10:41:46;;;;;;;11.33;5.43;;;;;;;20.83;100.00;101297.78;7371651;19;20443;-41
2023/09/28 10:44:17;;;;;;;11.30;5.20;;;;;;;21.02;100.00;101317.22;7395199;19;20448;-42
2023/09/28 10:46:48;;;;;;;8.00;4.17;;;;;;;20.74;100.00;101289.00;7372612;19;20431;-44
2023/09/28 10:49:24;;;;;;;10.13;5.10;;;;;;;20.79;100.00;101278.53;7395688;19;20435;-43
2023/09/28 10:51:58;;;;;;;7.60;3.50;;;;;;;20.99;100.00;101277.84;7372695;19;20438;-41
2023/09/28 10:54:29;;;;;;;9.63;4.03;;;;;;;21.18;100.00;101279.69;7395220;19;20443;-41
2023/09/28 10:56:58;;;;;;;12.30;4.10;;;;;;;20.94;100.00;101250.69;7372449;19;20433;-42
2023/09/28 10:59:28;;;;;;;18.13;5.00;;;;;;;20.71;100.00;101257.50;7396069;19;20426;-40
2023/09/28 11:01:58;;;;;;;7.40;3.63;;;;;;;20.82;100.00;101269.81;7373755;19;20452;-41
2023/09/28 11:04:28;;;;;;;10.00;3.60;;;;;;;21.08;100.00;101261.28;7394832;19;20776;-39
2023/09/28 11:07:21;;;;;;;10.43;4.33;;;;;;;20.87;100.00;101244.56;7373451;19;20423;-41
2023/09/28 11:09:50;;;;;;;10.53;5.53;;;;;;;20.86;100.00;101272.50;7395915;19;21157;-42
2023/09/28 11:12:20;;;;;;;8.37;3.50;;;;;;;20.61;100.00;101255.69;7373343;19;20431;-39
2023/09/28 11:14:51;;;;;;;9.60;5.63;;;;;;;20.74;100.00;101286.38;7395291;19;20435;-41
2023/09/28 11:17:21;;;;;;;8.97;4.83;;;;;;;20.94;100.00;101279.53;7373383;19;20922;-44
2023/09/28 11:19:55;;;;;;;7.53;3.67;;;;;;;21.15;100.00;101265.69;7396291;19;20408;-43
2023/09/28 11:22:30;;;;;;;8.27;4.43;;;;;;;21.22;100.00;101251.75;7373825;19;20449;-40
2023/09/28 11:24:59;;;;;;;9.00;3.83;;;;;;;21.27;100.00;101255.25;7394749;19;21026;-41